Avalon Express — WDD7919 — position and weather

sailwx.info

Track history (hours):
 
Tides and Currents Weather Stations Pressure Air Temp Water Temp Dewpoint Dewpoint Depression Visibility Wind Speed Wind Dir Waves Ship Positions

Avalon Express

Owner: RGWT INC, San Pedro, CA. More information available from US FCC via Universal Licensing System and Coast Guard Vessel Documentation Center.

Last reported at 2015-Aug-03 18:33 UTC. Time now 2015-Aug-03 19:12 UTC.
Position N 33°21' W 118°20'.

Type: High speed craft. MMSI: 367192940.

Date/timePositionNaut miles runAvg speedWind from/ knotsBaromVisibWave heightAir tempDewpointWater temp
2015-Aug-03 18:33N 33°21' W 118°20'4 4.3
2015-Aug-03 17:33N 33°26' W 118°18'1918.2
2015-Aug-03 16:29N 33°45' W 118°16'0 0.0
2015-Aug-03 15:33N 33°45' W 118°16'0 0.0
2015-Aug-03 05:09N 33°45' W 118°16'0 0.1
2015-Aug-03 04:33N 33°45' W 118°16'1211.9
2015-Aug-03 03:33N 33°33' W 118°17'1312.6
2015-Aug-03 02:33N 33°21' W 118°19'10 9.1
2015-Aug-03 01:27N 33°29' W 118°27'1820.1
2015-Aug-03 00:33N 33°44' W 118°17'1 0.6
2015-Aug-02 23:33N 33°45' W 118°16'1312.5
2015-Aug-02 22:31N 33°32' W 118°17'1111.9
2015-Aug-02 21:33N 33°21' W 118°19'1616.4
2015-Aug-02 20:33N 33°37' W 118°16'8 8.0
2015-Aug-02 19:33N 33°45' W 118°16'2018.8
2015-Aug-02 18:29N 33°25' W 118°19'2 1.6
2015-Aug-02 17:34N 33°24' W 118°18'2120.3
2015-Aug-02 16:31N 33°45' W 118°16'0 0.1
2015-Aug-02 14:09N 33°45' W 118°16'0 0.0
2015-Aug-01 22:33N 33°45' W 118°16'7 5.1
2015-Aug-01 21:10N 33°38' W 118°20'1413.1
2015-Aug-01 20:04N 33°28' W 118°32'3 4.9
2015-Aug-01 19:25N 33°28' W 118°28'6 5.9
2015-Aug-01 18:27N 33°25' W 118°22'4 4.2
2015-Aug-01 17:33N 33°26' W 118°18'1919.2
2015-Aug-01 16:33N 33°45' W 118°16'0 0.1
2015-Aug-01 15:33N 33°45' W 118°16'0 0.0
2015-Aug-01 14:33N 33°45' W 118°16'0 0.0
2015-Aug-01 13:13N 33°45' W 118°16'0 0.0
2015-Aug-01 12:34N 33°45' W 118°16'0 0.0
2015-Jul-31 19:33N 33°45' W 118°16'0 0.0
2015-Jul-31 18:33N 33°45' W 118°16'2 2.0
2015-Jul-31 17:34N 33°43' W 118°16'2322.4
2015-Jul-31 16:33N 33°21' W 118°19'2317.2
2015-Jul-31 15:11N 33°44' W 118°17'1 1.6
2015-Jul-31 14:33N 33°45' W 118°16'0 0.0
2015-Jul-31 00:29N 33°45' W 118°16'2412.3
2015-Jul-30 22:33N 33°21' W 118°20'1 0.1
2015-Jul-30 18:28N 33°21' W 118°19'1819.2
2015-Jul-30 17:31N 33°24' W 117°58'1414.8
2015-Jul-30 16:33N 33°28' W 117°42'0 0.0
2015-Jul-30 15:33N 33°28' W 117°42'0 0.0
2015-Jul-30 02:25N 33°28' W 117°42'2119.0
2015-Jul-30 01:19N 33°22' W 118°06'1111.5
2015-Jul-30 00:20N 33°21' W 118°19'1922.5
2015-Jul-29 23:30N 33°25' W 117°57'1314.2
2015-Jul-29 22:33N 33°28' W 117°42'0 0.0
2015-Jul-29 21:33N 33°28' W 117°42'0 0.0
2015-Jul-29 20:33N 33°28' W 117°42'1514.7
2015-Jul-29 19:33N 33°24' W 117°58'15 0.9
2015-Jul-29 02:33N 33°28' W 117°42'1211.2
2015-Jul-29 01:31N 33°24' W 117°55'2121.8
2015-Jul-29 00:34N 33°21' W 118°19'1514.9
2015-Jul-28 23:33N 33°24' W 118°02'1717.5
2015-Jul-28 22:34N 33°28' W 117°42'0 0.0
2015-Jul-28 20:31N 33°28' W 117°42'1617.0
2015-Jul-28 19:34N 33°24' W 118°01'1615.7
2015-Jul-28 18:33N 33°21' W 118°19'2020.5
2015-Jul-28 17:33N 33°25' W 117°55'1210.8
2015-Jul-28 16:26N 33°28' W 117°42'0 0.1
2015-Jul-28 15:33N 33°28' W 117°41'0 0.0
2015-Jul-28 03:33N 33°28' W 117°42'0 0.0
2015-Jul-28 02:33N 33°28' W 117°42'1515.1
2015-Jul-28 01:33N 33°23' W 117°59'1717.1
2015-Jul-28 00:33N 33°21' W 118°19'1615.8
2015-Jul-27 23:32N 33°23' W 118°01'1716.8
2015-Jul-27 22:33N 33°28' W 117°42'0 0.0
2015-Jul-27 21:33N 33°28' W 117°42'0 0.0
2015-Jul-27 20:33N 33°28' W 117°42'2120.5
2015-Jul-27 19:33N 33°22' W 118°06'1210.4
2015-Jul-27 18:26N 33°21' W 118°19'2123.6
2015-Jul-27 17:33N 33°24' W 117°55'1211.9
2015-Jul-27 16:33N 33°28' W 117°42'0 0.0
2015-Jul-27 03:34N 33°28' W 117°42'2019.3
2015-Jul-27 02:32N 33°23' W 118°05'1312.8
2015-Jul-27 01:33N 33°21' W 118°19'2322.6
2015-Jul-27 00:33N 33°25' W 117°53'10 9.9
2015-Jul-26 23:33N 33°28' W 117°42'0 0.0
2015-Jul-26 22:33N 33°28' W 117°42'2020.2
2015-Jul-26 21:33N 33°24' W 118°05'1212.3
2015-Jul-26 20:33N 33°21' W 118°19'2120.8
2015-Jul-26 19:33N 33°25' W 117°55'1111.5
2015-Jul-26 18:33N 33°28' W 117°42'1615.9
2015-Jul-26 17:34N 33°25' W 118°00'1616.4
2015-Jul-26 16:33N 33°21' W 118°19'1817.3
2015-Jul-26 15:32N 33°25' W 117°59'1515.0
2015-Jul-26 14:33N 33°28' W 117°42'0 0.1
2015-Jul-26 13:33N 33°28' W 117°41'0 0.0
2015-Jul-26 03:34N 33°28' W 117°42'2121.0
2015-Jul-26 02:34N 33°23' W 118°06'1111.3
2015-Jul-26 01:33N 33°21' W 118°19'2020.5
2015-Jul-26 00:34N 33°25' W 117°55'1211.9
2015-Jul-25 23:33N 33°28' W 117°42'0 0.0
2015-Jul-25 22:34N 33°28' W 117°42'2019.6
2015-Jul-25 21:34N 33°23' W 118°04'1312.7
2015-Jul-25 20:34N 33°21' W 118°19'2019.9
2015-Jul-25 19:34N 33°25' W 117°56'1212.4
2015-Jul-25 18:33N 33°28' W 117°42'1413.9
2015-Jul-25 17:34N 33°24' W 117°58'1918.5
2015-Jul-25 16:33N 33°21' W 118°19'32 2.5
2015-Jul-25 03:33N 33°28' W 117°42'2019.6
2015-Jul-25 02:33N 33°23' W 118°04'1312.7
2015-Jul-25 01:33N 33°21' W 118°19'2222.2
2015-Jul-25 00:33N 33°26' W 117°54'10 9.3
2015-Jul-24 23:27N 33°28' W 117°42'0 0.0
2015-Jul-24 22:33N 33°28' W 117°42'2121.0
2015-Jul-24 21:33N 33°23' W 118°06'1111.4
2015-Jul-24 20:34N 33°21' W 118°19'2524.5
2015-Jul-24 19:32N 33°26' W 117°50'7 7.3
2015-Jul-24 18:33N 33°28' W 117°42'  
Track history (hours):
 
Tides and Currents Weather Stations Pressure Air Temp Water Temp Dewpoint Dewpoint Depression Visibility Wind Speed Wind Dir Waves Ship Positions

Avalon Express

Owner: RGWT INC, San Pedro, CA. More information available from US FCC via Universal Licensing System and Coast Guard Vessel Documentation Center.

Last reported at 2015-Aug-03 18:33 UTC. Time now 2015-Aug-03 19:12 UTC.
Position N 33°21' W 118°20'.

Type: High speed craft. MMSI: 367192940.

Date/timePositionNaut miles runAvg speedWind from/ knotsBaromVisibWave heightAir tempDewpointWater temp
2015-Aug-03 18:33N 33°21' W 118°20'4 4.3
2015-Aug-03 17:33N 33°26' W 118°18'1918.2
2015-Aug-03 16:29N 33°45' W 118°16'0 0.0
2015-Aug-03 15:33N 33°45' W 118°16'0 0.0
2015-Aug-03 05:09N 33°45' W 118°16'0 0.1
2015-Aug-03 04:33N 33°45' W 118°16'1211.9
2015-Aug-03 03:33N 33°33' W 118°17'1312.6
2015-Aug-03 02:33N 33°21' W 118°19'10 9.1
2015-Aug-03 01:27N 33°29' W 118°27'1820.1
2015-Aug-03 00:33N 33°44' W 118°17'1 0.6
2015-Aug-02 23:33N 33°45' W 118°16'1312.5
2015-Aug-02 22:31N 33°32' W 118°17'1111.9
2015-Aug-02 21:33N 33°21' W 118°19'1616.4
2015-Aug-02 20:33N 33°37' W 118°16'8 8.0
2015-Aug-02 19:33N 33°45' W 118°16'2018.8
2015-Aug-02 18:29N 33°25' W 118°19'2 1.6
2015-Aug-02 17:34N 33°24' W 118°18'2120.3
2015-Aug-02 16:31N 33°45' W 118°16'0 0.1
2015-Aug-02 14:09N 33°45' W 118°16'0 0.0
2015-Aug-01 22:33N 33°45' W 118°16'7 5.1
2015-Aug-01 21:10N 33°38' W 118°20'1413.1
2015-Aug-01 20:04N 33°28' W 118°32'3 4.9
2015-Aug-01 19:25N 33°28' W 118°28'6 5.9
2015-Aug-01 18:27N 33°25' W 118°22'4 4.2
2015-Aug-01 17:33N 33°26' W 118°18'1919.2
2015-Aug-01 16:33N 33°45' W 118°16'0 0.1
2015-Aug-01 15:33N 33°45' W 118°16'0 0.0
2015-Aug-01 14:33N 33°45' W 118°16'0 0.0
2015-Aug-01 13:13N 33°45' W 118°16'0 0.0
2015-Aug-01 12:34N 33°45' W 118°16'0 0.0
2015-Jul-31 19:33N 33°45' W 118°16'0 0.0
2015-Jul-31 18:33N 33°45' W 118°16'2 2.0
2015-Jul-31 17:34N 33°43' W 118°16'2322.4
2015-Jul-31 16:33N 33°21' W 118°19'2317.2
2015-Jul-31 15:11N 33°44' W 118°17'1 1.6
2015-Jul-31 14:33N 33°45' W 118°16'0 0.0
2015-Jul-31 00:29N 33°45' W 118°16'2412.3
2015-Jul-30 22:33N 33°21' W 118°20'1 0.1
2015-Jul-30 18:28N 33°21' W 118°19'1819.2
2015-Jul-30 17:31N 33°24' W 117°58'1414.8
2015-Jul-30 16:33N 33°28' W 117°42'0 0.0
2015-Jul-30 15:33N 33°28' W 117°42'0 0.0
2015-Jul-30 02:25N 33°28' W 117°42'2119.0
2015-Jul-30 01:19N 33°22' W 118°06'1111.5
2015-Jul-30 00:20N 33°21' W 118°19'1922.5
2015-Jul-29 23:30N 33°25' W 117°57'1314.2
2015-Jul-29 22:33N 33°28' W 117°42'0 0.0
2015-Jul-29 21:33N 33°28' W 117°42'0 0.0
2015-Jul-29 20:33N 33°28' W 117°42'1514.7
2015-Jul-29 19:33N 33°24' W 117°58'15 0.9
2015-Jul-29 02:33N 33°28' W 117°42'1211.2
2015-Jul-29 01:31N 33°24' W 117°55'2121.8
2015-Jul-29 00:34N 33°21' W 118°19'1514.9
2015-Jul-28 23:33N 33°24' W 118°02'1717.5
2015-Jul-28 22:34N 33°28' W 117°42'0 0.0
2015-Jul-28 20:31N 33°28' W 117°42'1617.0
2015-Jul-28 19:34N 33°24' W 118°01'1615.7
2015-Jul-28 18:33N 33°21' W 118°19'2020.5
2015-Jul-28 17:33N 33°25' W 117°55'1210.8
2015-Jul-28 16:26N 33°28' W 117°42'0 0.1
2015-Jul-28 15:33N 33°28' W 117°41'0 0.0
2015-Jul-28 03:33N 33°28' W 117°42'0 0.0
2015-Jul-28 02:33N 33°28' W 117°42'1515.1
2015-Jul-28 01:33N 33°23' W 117°59'1717.1
2015-Jul-28 00:33N 33°21' W 118°19'1615.8
2015-Jul-27 23:32N 33°23' W 118°01'1716.8
2015-Jul-27 22:33N 33°28' W 117°42'0 0.0
2015-Jul-27 21:33N 33°28' W 117°42'0 0.0
2015-Jul-27 20:33N 33°28' W 117°42'2120.5
2015-Jul-27 19:33N 33°22' W 118°06'1210.4
2015-Jul-27 18:26N 33°21' W 118°19'2123.6
2015-Jul-27 17:33N 33°24' W 117°55'1211.9
2015-Jul-27 16:33N 33°28' W 117°42'0 0.0
2015-Jul-27 03:34N 33°28' W 117°42'2019.3
2015-Jul-27 02:32N 33°23' W 118°05'1312.8
2015-Jul-27 01:33N 33°21' W 118°19'2322.6
2015-Jul-27 00:33N 33°25' W 117°53'10 9.9
2015-Jul-26 23:33N 33°28' W 117°42'0 0.0
2015-Jul-26 22:33N 33°28' W 117°42'2020.2
2015-Jul-26 21:33N 33°24' W 118°05'1212.3
2015-Jul-26 20:33N 33°21' W 118°19'2120.8
2015-Jul-26 19:33N 33°25' W 117°55'1111.5
2015-Jul-26 18:33N 33°28' W 117°42'1615.9
2015-Jul-26 17:34N 33°25' W 118°00'1616.4
2015-Jul-26 16:33N 33°21' W 118°19'1817.3
2015-Jul-26 15:32N 33°25' W 117°59'1515.0
2015-Jul-26 14:33N 33°28' W 117°42'0 0.1
2015-Jul-26 13:33N 33°28' W 117°41'0 0.0
2015-Jul-26 03:34N 33°28' W 117°42'2121.0
2015-Jul-26 02:34N 33°23' W 118°06'1111.3
2015-Jul-26 01:33N 33°21' W 118°19'2020.5
2015-Jul-26 00:34N 33°25' W 117°55'1211.9
2015-Jul-25 23:33N 33°28' W 117°42'0 0.0
2015-Jul-25 22:34N 33°28' W 117°42'2019.6
2015-Jul-25 21:34N 33°23' W 118°04'1312.7
2015-Jul-25 20:34N 33°21' W 118°19'2019.9
2015-Jul-25 19:34N 33°25' W 117°56'1212.4
2015-Jul-25 18:33N 33°28' W 117°42'1413.9
2015-Jul-25 17:34N 33°24' W 117°58'1918.5
2015-Jul-25 16:33N 33°21' W 118°19'32 2.5
2015-Jul-25 03:33N 33°28' W 117°42'2019.6
2015-Jul-25 02:33N 33°23' W 118°04'1312.7
2015-Jul-25 01:33N 33°21' W 118°19'2222.2
2015-Jul-25 00:33N 33°26' W 117°54'10 9.3
2015-Jul-24 23:27N 33°28' W 117°42'0 0.0
2015-Jul-24 22:33N 33°28' W 117°42'2121.0
2015-Jul-24 21:33N 33°23' W 118°06'1111.4
2015-Jul-24 20:34N 33°21' W 118°19'2524.5
2015-Jul-24 19:32N 33°26' W 117°50'7 7.3
2015-Jul-24 18:33N 33°28' W 117°42'  

Dump ship's entire track history